sensor_id;sensor_type;location;lat;lon;timestamp;P1;durP1;ratioP1;P2;durP2;ratioP2
61525;SDS011;47394;41.366;-8.738;2022-11-11T00:00:57;73.00;;;49.17;;
61525;SDS011;47394;41.366;-8.738;2022-11-11T00:03:16;86.05;;;49.40;;
61525;SDS011;47394;41.366;-8.738;2022-11-11T00:05:35;89.03;;;47.70;;
61525;SDS011;47394;41.366;-8.738;2022-11-11T00:07:54;78.00;;;48.22;;
61525;SDS011;47394;41.366;-8.738;2022-11-11T00:10:17;81.35;;;49.28;;
61525;SDS011;47394;41.366;-8.738;2022-11-11T00:12:38;73.63;;;47.38;;
61525;SDS011;47394;41.366;-8.738;2022-11-11T00:14:56;77.00;;;47.63;;
61525;SDS011;47394;41.366;-8.738;2022-11-11T00:17:15;88.97;;;47.60;;
61525;SDS011;47394;41.366;-8.738;2022-11-11T00:19:53;77.45;;;50.13;;
61525;SDS011;47394;41.366;-8.738;2022-11-11T00:22:31;74.53;;;48.05;;
61525;SDS011;47394;41.366;-8.738;2022-11-11T00:25:11;73.10;;;48.13;;
61525;SDS011;47394;41.366;-8.738;2022-11-11T00:27:30;70.53;;;47.97;;
61525;SDS011;47394;41.366;-8.738;2022-11-11T00:29:49;78.35;;;50.15;;
61525;SDS011;47394;41.366;-8.738;2022-11-11T00:32:08;71.97;;;48.13;;
61525;SDS011;47394;41.366;-8.738;2022-11-11T00:34:45;66.25;;;47.58;;
61525;SDS011;47394;41.366;-8.738;2022-11-11T00:37:24;75.88;;;47.50;;
61525;SDS011;47394;41.366;-8.738;2022-11-11T00:39:43;75.50;;;46.95;;
61525;SDS011;47394;41.366;-8.738;2022-11-11T00:42:03;68.05;;;46.47;;
61525;SDS011;47394;41.366;-8.738;2022-11-11T00:44:22;71.43;;;45.75;;
61525;SDS011;47394;41.366;-8.738;2022-11-11T00:46:41;75.13;;;47.22;;
61525;SDS011;47394;41.366;-8.738;2022-11-11T00:49:19;69.03;;;44.67;;
61525;SDS011;47394;41.366;-8.738;2022-11-11T00:51:57;57.53;;;41.97;;
61525;SDS011;47394;41.366;-8.738;2022-11-11T00:54:16;66.22;;;43.05;;
61525;SDS011;47394;41.366;-8.738;2022-11-11T00:56:35;76.72;;;46.03;;
61525;SDS011;47394;41.366;-8.738;2022-11-11T00:58:54;72.63;;;45.63;;
61525;SDS011;47394;41.366;-8.738;2022-11-11T01:01:13;68.03;;;44.53;;
61525;SDS011;47394;41.366;-8.738;2022-11-11T01:03:32;64.43;;;44.80;;
61525;SDS011;47394;41.366;-8.738;2022-11-11T01:05:51;71.15;;;40.83;;
61525;SDS011;47394;41.366;-8.738;2022-11-11T01:08:09;57.05;;;39.17;;
61525;SDS011;47394;41.366;-8.738;2022-11-11T01:10:29;68.55;;;38.90;;
61525;SDS011;47394;41.366;-8.738;2022-11-11T01:12:57;57.38;;;40.60;;
61525;SDS011;47394;41.366;-8.738;2022-11-11T01:15:31;63.28;;;40.20;;
61525;SDS011;47394;41.366;-8.738;2022-11-11T01:17:50;52.78;;;37.65;;
61525;SDS011;47394;41.366;-8.738;2022-11-11T01:20:09;58.28;;;38.63;;
61525;SDS011;47394;41.366;-8.738;2022-11-11T01:22:28;57.20;;;37.42;;
61525;SDS011;47394;41.366;-8.738;2022-11-11T01:24:47;52.85;;;37.05;;
61525;SDS011;47394;41.366;-8.738;2022-11-11T01:27:06;50.17;;;37.78;;
61525;SDS011;47394;41.366;-8.738;2022-11-11T01:29:25;51.58;;;37.55;;
61525;SDS011;47394;41.366;-8.738;2022-11-11T01:31:44;53.78;;;36.33;;
61525;SDS011;47394;41.366;-8.738;2022-11-11T01:34:03;51.25;;;36.67;;
61525;SDS011;47394;41.366;-8.738;2022-11-11T01:36:24;46.47;;;35.45;;
61525;SDS011;47394;41.366;-8.738;2022-11-11T01:38:46;48.90;;;36.35;;
61525;SDS011;47394;41.366;-8.738;2022-11-11T01:41:06;49.85;;;34.17;;
61525;SDS011;47394;41.366;-8.738;2022-11-11T01:43:44;54.40;;;35.33;;
61525;SDS011;47394;41.366;-8.738;2022-11-11T01:46:03;51.47;;;36.30;;
61525;SDS011;47394;41.366;-8.738;2022-11-11T01:48:25;57.47;;;36.80;;
61525;SDS011;47394;41.366;-8.738;2022-11-11T01:51:04;51.50;;;37.25;;
61525;SDS011;47394;41.366;-8.738;2022-11-11T01:53:23;43.55;;;36.55;;
61525;SDS011;47394;41.366;-8.738;2022-11-11T01:55:42;53.55;;;38.58;;
61525;SDS011;47394;41.366;-8.738;2022-11-11T01:58:19;43.72;;;37.03;;
61525;SDS011;47394;41.366;-8.738;2022-11-11T02:00:38;57.95;;;38.80;;
61525;SDS011;47394;41.366;-8.738;2022-11-11T02:02:58;52.78;;;38.03;;
61525;SDS011;47394;41.366;-8.738;2022-11-11T02:05:21;53.08;;;38.53;;
61525;SDS011;47394;41.366;-8.738;2022-11-11T02:08:00;49.17;;;37.10;;
61525;SDS011;47394;41.366;-8.738;2022-11-11T02:10:21;43.67;;;35.50;;
61525;SDS011;47394;41.366;-8.738;2022-11-11T02:12:40;42.88;;;33.63;;
61525;SDS011;47394;41.366;-8.738;2022-11-11T02:15:18;40.85;;;34.55;;
61525;SDS011;47394;41.366;-8.738;2022-11-11T02:17:37;45.15;;;33.58;;
61525;SDS011;47394;41.366;-8.738;2022-11-11T02:19:57;52.60;;;35.33;;
61525;SDS011;47394;41.366;-8.738;2022-11-11T02:22:25;49.40;;;35.00;;
61525;SDS011;47394;41.366;-8.738;2022-11-11T02:24:46;43.88;;;34.22;;
61525;SDS011;47394;41.366;-8.738;2022-11-11T02:27:06;45.42;;;32.83;;
61525;SDS011;47394;41.366;-8.738;2022-11-11T02:29:26;44.33;;;32.75;;
61525;SDS011;47394;41.366;-8.738;2022-11-11T02:31:46;46.88;;;32.42;;
61525;SDS011;47394;41.366;-8.738;2022-11-11T02:34:05;43.72;;;32.40;;
61525;SDS011;47394;41.366;-8.738;2022-11-11T02:36:24;42.13;;;31.90;;
61525;SDS011;47394;41.366;-8.738;2022-11-11T02:38:44;42.90;;;31.98;;
61525;SDS011;47394;41.366;-8.738;2022-11-11T02:41:02;45.95;;;31.42;;
61525;SDS011;47394;41.366;-8.738;2022-11-11T02:43:40;45.05;;;33.00;;
61525;SDS011;47394;41.366;-8.738;2022-11-11T02:46:01;47.75;;;33.25;;
61525;SDS011;47394;41.366;-8.738;2022-11-11T02:48:20;44.42;;;36.20;;
61525;SDS011;47394;41.366;-8.738;2022-11-11T02:50:39;38.25;;;33.83;;
61525;SDS011;47394;41.366;-8.738;2022-11-11T02:52:58;48.70;;;33.90;;
61525;SDS011;47394;41.366;-8.738;2022-11-11T02:55:17;38.97;;;32.30;;
61525;SDS011;47394;41.366;-8.738;2022-11-11T02:57:36;40.28;;;31.20;;
61525;SDS011;47394;41.366;-8.738;2022-11-11T02:59:57;43.42;;;30.67;;
61525;SDS011;47394;41.366;-8.738;2022-11-11T03:02:17;38.22;;;29.92;;
61525;SDS011;47394;41.366;-8.738;2022-11-11T03:04:36;38.80;;;28.70;;
61525;SDS011;47394;41.366;-8.738;2022-11-11T03:06:56;37.05;;;27.30;;
61525;SDS011;47394;41.366;-8.738;2022-11-11T03:09:14;39.35;;;28.25;;
61525;SDS011;47394;41.366;-8.738;2022-11-11T03:11:33;36.60;;;27.90;;
61525;SDS011;47394;41.366;-8.738;2022-11-11T03:13:56;37.42;;;26.95;;
61525;SDS011;47394;41.366;-8.738;2022-11-11T03:16:15;35.40;;;26.02;;
61525;SDS011;47394;41.366;-8.738;2022-11-11T03:18:53;33.03;;;25.58;;
61525;SDS011;47394;41.366;-8.738;2022-11-11T03:21:12;35.55;;;25.23;;
61525;SDS011;47394;41.366;-8.738;2022-11-11T03:23:31;30.63;;;24.52;;
61525;SDS011;47394;41.366;-8.738;2022-11-11T03:25:50;30.42;;;24.27;;
61525;SDS011;47394;41.366;-8.738;2022-11-11T03:28:16;33.20;;;23.95;;
61525;SDS011;47394;41.366;-8.738;2022-11-11T03:30:35;35.72;;;23.77;;
61525;SDS011;47394;41.366;-8.738;2022-11-11T03:32:54;29.60;;;23.40;;
61525;SDS011;47394;41.366;-8.738;2022-11-11T03:35:13;27.02;;;22.58;;
61525;SDS011;47394;41.366;-8.738;2022-11-11T03:37:32;30.40;;;22.55;;
61525;SDS011;47394;41.366;-8.738;2022-11-11T03:40:10;27.15;;;22.00;;
61525;SDS011;47394;41.366;-8.738;2022-11-11T03:42:29;26.48;;;22.73;;
61525;SDS011;47394;41.366;-8.738;2022-11-11T03:44:48;29.98;;;22.45;;
61525;SDS011;47394;41.366;-8.738;2022-11-11T03:47:07;30.00;;;21.90;;
61525;SDS011;47394;41.366;-8.738;2022-11-11T03:49:26;31.65;;;21.90;;
61525;SDS011;47394;41.366;-8.738;2022-11-11T03:51:45;31.17;;;21.77;;
61525;SDS011;47394;41.366;-8.738;2022-11-11T03:54:05;28.10;;;21.88;;
61525;SDS011;47394;41.366;-8.738;2022-11-11T03:56:24;27.65;;;21.15;;
61525;SDS011;47394;41.366;-8.738;2022-11-11T03:58:43;29.80;;;21.80;;
61525;SDS011;47394;41.366;-8.738;2022-11-11T04:01:02;30.48;;;22.15;;
61525;SDS011;47394;41.366;-8.738;2022-11-11T04:03:41;25.02;;;20.88;;
61525;SDS011;47394;41.366;-8.738;2022-11-11T04:06:19;26.45;;;20.80;;
61525;SDS011;47394;41.366;-8.738;2022-11-11T04:08:57;31.73;;;21.98;;
61525;SDS011;47394;41.366;-8.738;2022-11-11T04:11:44;30.77;;;20.95;;
61525;SDS011;47394;41.366;-8.738;2022-11-11T04:14:06;27.27;;;21.40;;
61525;SDS011;47394;41.366;-8.738;2022-11-11T04:16:45;34.38;;;22.02;;
61525;SDS011;47394;41.366;-8.738;2022-11-11T04:19:04;34.30;;;22.60;;
61525;SDS011;47394;41.366;-8.738;2022-11-11T04:21:43;25.65;;;21.27;;
61525;SDS011;47394;41.366;-8.738;2022-11-11T04:24:02;27.58;;;20.13;;
61525;SDS011;47394;41.366;-8.738;2022-11-11T04:26:21;26.90;;;20.83;;
61525;SDS011;47394;41.366;-8.738;2022-11-11T04:28:40;22.70;;;19.80;;
61525;SDS011;47394;41.366;-8.738;2022-11-11T04:31:18;26.52;;;19.25;;
61525;SDS011;47394;41.366;-8.738;2022-11-11T04:33:37;22.40;;;17.35;;
61525;SDS011;47394;41.366;-8.738;2022-11-11T04:35:56;24.95;;;18.83;;
61525;SDS011;47394;41.366;-8.738;2022-11-11T04:38:15;24.73;;;17.70;;
61525;SDS011;47394;41.366;-8.738;2022-11-11T04:40:53;20.90;;;17.08;;
61525;SDS011;47394;41.366;-8.738;2022-11-11T04:43:21;21.25;;;16.77;;
61525;SDS011;47394;41.366;-8.738;2022-11-11T04:45:40;22.83;;;16.52;;
61525;SDS011;47394;41.366;-8.738;2022-11-11T04:50:22;16.23;;;13.93;;
61525;SDS011;47394;41.366;-8.738;2022-11-11T04:52:41;22.17;;;15.15;;
61525;SDS011;47394;41.366;-8.738;2022-11-11T04:55:00;22.55;;;16.08;;
61525;SDS011;47394;41.366;-8.738;2022-11-11T04:57:42;21.15;;;14.70;;
61525;SDS011;47394;41.366;-8.738;2022-11-11T05:00:01;24.20;;;16.20;;
61525;SDS011;47394;41.366;-8.738;2022-11-11T05:02:20;27.08;;;16.35;;
61525;SDS011;47394;41.366;-8.738;2022-11-11T05:04:58;21.17;;;14.63;;
61525;SDS011;47394;41.366;-8.738;2022-11-11T05:07:17;21.00;;;14.70;;
61525;SDS011;47394;41.366;-8.738;2022-11-11T05:09:55;15.98;;;14.23;;
61525;SDS011;47394;41.366;-8.738;2022-11-11T05:12:14;18.08;;;15.32;;
61525;SDS011;47394;41.366;-8.738;2022-11-11T05:14:33;29.80;;;18.50;;
61525;SDS011;47394;41.366;-8.738;2022-11-11T05:17:11;27.23;;;16.98;;
61525;SDS011;47394;41.366;-8.738;2022-11-11T05:19:49;19.73;;;16.60;;
61525;SDS011;47394;41.366;-8.738;2022-11-11T05:22:34;20.27;;;16.95;;
61525;SDS011;47394;41.366;-8.738;2022-11-11T05:24:54;22.15;;;18.05;;
61525;SDS011;47394;41.366;-8.738;2022-11-11T05:27:31;21.33;;;16.25;;
61525;SDS011;47394;41.366;-8.738;2022-11-11T05:29:51;24.52;;;18.08;;
61525;SDS011;47394;41.366;-8.738;2022-11-11T05:32:10;22.48;;;16.00;;
61525;SDS011;47394;41.366;-8.738;2022-11-11T05:34:33;19.83;;;15.73;;
61525;SDS011;47394;41.366;-8.738;2022-11-11T05:36:52;19.27;;;15.05;;
61525;SDS011;47394;41.366;-8.738;2022-11-11T05:39:11;20.75;;;15.23;;
61525;SDS011;47394;41.366;-8.738;2022-11-11T05:41:30;16.45;;;14.73;;
61525;SDS011;47394;41.366;-8.738;2022-11-11T05:43:48;18.45;;;14.75;;
61525;SDS011;47394;41.366;-8.738;2022-11-11T05:46:07;15.80;;;14.05;;
61525;SDS011;47394;41.366;-8.738;2022-11-11T05:48:26;20.38;;;14.35;;
61525;SDS011;47394;41.366;-8.738;2022-11-11T05:50:45;23.17;;;14.95;;
61525;SDS011;47394;41.366;-8.738;2022-11-11T05:53:04;18.17;;;13.95;;
61525;SDS011;47394;41.366;-8.738;2022-11-11T05:55:23;15.27;;;13.68;;
61525;SDS011;47394;41.366;-8.738;2022-11-11T05:57:42;19.42;;;14.15;;
61525;SDS011;47394;41.366;-8.738;2022-11-11T06:00:02;16.67;;;14.30;;
61525;SDS011;47394;41.366;-8.738;2022-11-11T06:02:22;19.23;;;14.30;;
61525;SDS011;47394;41.366;-8.738;2022-11-11T06:04:41;19.67;;;13.23;;
61525;SDS011;47394;41.366;-8.738;2022-11-11T06:07:00;18.30;;;14.10;;
61525;SDS011;47394;41.366;-8.738;2022-11-11T06:09:19;14.90;;;13.32;;
61525;SDS011;47394;41.366;-8.738;2022-11-11T06:11:38;14.73;;;12.93;;
61525;SDS011;47394;41.366;-8.738;2022-11-11T06:13:57;16.38;;;13.90;;
61525;SDS011;47394;41.366;-8.738;2022-11-11T06:16:16;16.30;;;12.57;;
61525;SDS011;47394;41.366;-8.738;2022-11-11T06:18:35;16.10;;;11.57;;
61525;SDS011;47394;41.366;-8.738;2022-11-11T06:20:55;17.90;;;11.93;;
61525;SDS011;47394;41.366;-8.738;2022-11-11T06:23:14;10.70;;;9.57;;
61525;SDS011;47394;41.366;-8.738;2022-11-11T06:25:33;11.90;;;9.68;;
61525;SDS011;47394;41.366;-8.738;2022-11-11T06:28:11;11.35;;;9.32;;
61525;SDS011;47394;41.366;-8.738;2022-11-11T06:30:30;13.38;;;9.43;;
61525;SDS011;47394;41.366;-8.738;2022-11-11T06:32:49;16.17;;;10.05;;
61525;SDS011;47394;41.366;-8.738;2022-11-11T06:35:08;11.93;;;8.80;;
61525;SDS011;47394;41.366;-8.738;2022-11-11T06:37:27;15.65;;;8.77;;
61525;SDS011;47394;41.366;-8.738;2022-11-11T06:39:47;12.80;;;8.02;;
61525;SDS011;47394;41.366;-8.738;2022-11-11T06:42:05;13.90;;;8.23;;
61525;SDS011;47394;41.366;-8.738;2022-11-11T06:44:24;11.73;;;7.57;;
61525;SDS011;47394;41.366;-8.738;2022-11-11T06:46:43;10.00;;;7.07;;
61525;SDS011;47394;41.366;-8.738;2022-11-11T06:49:02;13.60;;;7.00;;
61525;SDS011;47394;41.366;-8.738;2022-11-11T06:51:21;13.52;;;7.03;;
61525;SDS011;47394;41.366;-8.738;2022-11-11T06:53:40;10.57;;;6.68;;
61525;SDS011;47394;41.366;-8.738;2022-11-11T06:56:00;9.48;;;6.30;;
61525;SDS011;47394;41.366;-8.738;2022-11-11T06:58:19;12.20;;;7.00;;
61525;SDS011;47394;41.366;-8.738;2022-11-11T07:00:38;13.10;;;7.03;;
61525;SDS011;47394;41.366;-8.738;2022-11-11T07:02:57;18.42;;;7.28;;
61525;SDS011;47394;41.366;-8.738;2022-11-11T07:05:16;9.32;;;6.57;;
61525;SDS011;47394;41.366;-8.738;2022-11-11T07:07:35;8.88;;;6.15;;
61525;SDS011;47394;41.366;-8.738;2022-11-11T07:09:54;13.32;;;6.57;;
61525;SDS011;47394;41.366;-8.738;2022-11-11T07:12:13;11.32;;;6.80;;
61525;SDS011;47394;41.366;-8.738;2022-11-11T07:14:32;9.85;;;6.20;;
61525;SDS011;47394;41.366;-8.738;2022-11-11T07:16:52;10.63;;;6.20;;
61525;SDS011;47394;41.366;-8.738;2022-11-11T07:19:11;7.13;;;6.03;;
61525;SDS011;47394;41.366;-8.738;2022-11-11T07:21:30;10.73;;;6.18;;
61525;SDS011;47394;41.366;-8.738;2022-11-11T07:23:49;11.95;;;5.80;;
61525;SDS011;47394;41.366;-8.738;2022-11-11T07:26:08;6.55;;;5.75;;
61525;SDS011;47394;41.366;-8.738;2022-11-11T07:28:26;5.43;;;4.75;;
61525;SDS011;47394;41.366;-8.738;2022-11-11T07:30:45;7.88;;;4.82;;
61525;SDS011;47394;41.366;-8.738;2022-11-11T07:33:04;7.70;;;5.18;;
61525;SDS011;47394;41.366;-8.738;2022-11-11T07:35:23;9.02;;;5.75;;
61525;SDS011;47394;41.366;-8.738;2022-11-11T07:37:42;8.18;;;5.32;;
61525;SDS011;47394;41.366;-8.738;2022-11-11T07:40:02;9.68;;;5.75;;
61525;SDS011;47394;41.366;-8.738;2022-11-11T07:42:21;6.63;;;5.72;;
61525;SDS011;47394;41.366;-8.738;2022-11-11T07:44:40;8.27;;;5.75;;
61525;SDS011;47394;41.366;-8.738;2022-11-11T07:46:59;9.05;;;5.78;;
61525;SDS011;47394;41.366;-8.738;2022-11-11T07:49:18;8.02;;;5.90;;
61525;SDS011;47394;41.366;-8.738;2022-11-11T07:51:37;7.72;;;6.15;;
61525;SDS011;47394;41.366;-8.738;2022-11-11T07:53:57;7.75;;;5.78;;
61525;SDS011;47394;41.366;-8.738;2022-11-11T07:56:16;14.15;;;6.25;;
61525;SDS011;47394;41.366;-8.738;2022-11-11T07:58:35;10.07;;;5.70;;
61525;SDS011;47394;41.366;-8.738;2022-11-11T08:00:57;9.75;;;6.05;;
61525;SDS011;47394;41.366;-8.738;2022-11-11T08:03:16;9.50;;;5.35;;
61525;SDS011;47394;41.366;-8.738;2022-11-11T08:05:35;8.25;;;5.40;;
61525;SDS011;47394;41.366;-8.738;2022-11-11T08:07:54;6.43;;;4.82;;
61525;SDS011;47394;41.366;-8.738;2022-11-11T08:10:14;8.88;;;5.80;;
61525;SDS011;47394;41.366;-8.738;2022-11-11T08:12:33;12.15;;;5.22;;
61525;SDS011;47394;41.366;-8.738;2022-11-11T08:15:10;8.40;;;4.65;;
61525;SDS011;47394;41.366;-8.738;2022-11-11T08:17:29;6.60;;;5.03;;
61525;SDS011;47394;41.366;-8.738;2022-11-11T08:19:48;6.55;;;4.53;;
61525;SDS011;47394;41.366;-8.738;2022-11-11T08:22:07;9.73;;;4.75;;
61525;SDS011;47394;41.366;-8.738;2022-11-11T08:24:26;12.07;;;4.90;;
61525;SDS011;47394;41.366;-8.738;2022-11-11T08:26:45;5.40;;;4.00;;
61525;SDS011;47394;41.366;-8.738;2022-11-11T08:29:05;6.13;;;4.47;;
61525;SDS011;47394;41.366;-8.738;2022-11-11T08:31:24;5.93;;;3.50;;
61525;SDS011;47394;41.366;-8.738;2022-11-11T08:33:43;6.35;;;3.92;;
61525;SDS011;47394;41.366;-8.738;2022-11-11T08:36:02;5.68;;;3.75;;
61525;SDS011;47394;41.366;-8.738;2022-11-11T08:38:21;5.05;;;3.75;;
61525;SDS011;47394;41.366;-8.738;2022-11-11T08:40:40;6.13;;;3.83;;
61525;SDS011;47394;41.366;-8.738;2022-11-11T08:42:59;10.27;;;4.25;;
61525;SDS011;47394;41.366;-8.738;2022-11-11T08:45:18;9.32;;;4.00;;
61525;SDS011;47394;41.366;-8.738;2022-11-11T08:47:37;8.95;;;3.83;;
61525;SDS011;47394;41.366;-8.738;2022-11-11T08:49:57;5.43;;;3.92;;
61525;SDS011;47394;41.366;-8.738;2022-11-11T08:52:16;9.25;;;3.95;;
61525;SDS011;47394;41.366;-8.738;2022-11-11T08:54:35;9.63;;;4.07;;
61525;SDS011;47394;41.366;-8.738;2022-11-11T08:56:54;5.18;;;3.40;;
61525;SDS011;47394;41.366;-8.738;2022-11-11T08:59:13;6.97;;;3.67;;
61525;SDS011;47394;41.366;-8.738;2022-11-11T09:01:33;6.68;;;3.55;;
61525;SDS011;47394;41.366;-8.738;2022-11-11T09:03:51;6.05;;;3.58;;
61525;SDS011;47394;41.366;-8.738;2022-11-11T09:06:11;9.32;;;3.20;;
61525;SDS011;47394;41.366;-8.738;2022-11-11T09:08:30;4.45;;;3.03;;
61525;SDS011;47394;41.366;-8.738;2022-11-11T09:10:49;6.30;;;3.78;;
61525;SDS011;47394;41.366;-8.738;2022-11-11T09:13:08;11.18;;;3.20;;
61525;SDS011;47394;41.366;-8.738;2022-11-11T09:15:27;10.95;;;3.47;;
61525;SDS011;47394;41.366;-8.738;2022-11-11T09:17:46;8.50;;;2.78;;
61525;SDS011;47394;41.366;-8.738;2022-11-11T09:20:05;10.23;;;2.95;;
61525;SDS011;47394;41.366;-8.738;2022-11-11T09:22:25;5.43;;;2.65;;
61525;SDS011;47394;41.366;-8.738;2022-11-11T09:24:44;3.92;;;2.60;;
61525;SDS011;47394;41.366;-8.738;2022-11-11T09:27:03;6.00;;;2.95;;
61525;SDS011;47394;41.366;-8.738;2022-11-11T09:29:22;2.75;;;2.42;;
61525;SDS011;47394;41.366;-8.738;2022-11-11T09:31:41;7.28;;;3.13;;
61525;SDS011;47394;41.366;-8.738;2022-11-11T09:34:00;3.95;;;2.83;;
61525;SDS011;47394;41.366;-8.738;2022-11-11T09:36:19;4.90;;;2.63;;
61525;SDS011;47394;41.366;-8.738;2022-11-11T09:38:38;4.00;;;2.58;;
61525;SDS011;47394;41.366;-8.738;2022-11-11T09:46:22;4.55;;;2.72;;
61525;SDS011;47394;41.366;-8.738;2022-11-11T09:50:52;4.07;;;2.65;;
61525;SDS011;47394;41.366;-8.738;2022-11-11T09:53:18;7.72;;;2.90;;
61525;SDS011;47394;41.366;-8.738;2022-11-11T09:55:41;6.80;;;4.25;;
61525;SDS011;47394;41.366;-8.738;2022-11-11T09:58:02;6.55;;;3.83;;
61525;SDS011;47394;41.366;-8.738;2022-11-11T10:00:23;7.70;;;4.03;;
61525;SDS011;47394;41.366;-8.738;2022-11-11T10:02:52;7.75;;;4.13;;
61525;SDS011;47394;41.366;-8.738;2022-11-11T10:05:14;11.55;;;5.32;;
61525;SDS011;47394;41.366;-8.738;2022-11-11T10:07:48;11.40;;;6.45;;
61525;SDS011;47394;41.366;-8.738;2022-11-11T10:12:48;9.93;;;6.10;;
61525;SDS011;47394;41.366;-8.738;2022-11-11T10:15:12;8.73;;;5.57;;
61525;SDS011;47394;41.366;-8.738;2022-11-11T10:17:49;9.98;;;5.45;;
61525;SDS011;47394;41.366;-8.738;2022-11-11T10:24:52;7.47;;;3.80;;
61525;SDS011;47394;41.366;-8.738;2022-11-11T10:27:20;7.60;;;3.75;;
61525;SDS011;47394;41.366;-8.738;2022-11-11T10:29:40;5.60;;;3.47;;
61525;SDS011;47394;41.366;-8.738;2022-11-11T10:32:02;7.93;;;3.42;;
61525;SDS011;47394;41.366;-8.738;2022-11-11T10:34:31;4.63;;;2.72;;
61525;SDS011;47394;41.366;-8.738;2022-11-11T10:36:52;8.35;;;3.35;;
61525;SDS011;47394;41.366;-8.738;2022-11-11T10:39:13;3.33;;;2.80;;
61525;SDS011;47394;41.366;-8.738;2022-11-11T10:43:52;5.50;;;3.22;;
61525;SDS011;47394;41.366;-8.738;2022-11-11T10:46:18;6.68;;;3.67;;
61525;SDS011;47394;41.366;-8.738;2022-11-11T10:48:54;4.63;;;3.38;;
61525;SDS011;47394;41.366;-8.738;2022-11-11T10:51:17;4.78;;;3.20;;
61525;SDS011;47394;41.366;-8.738;2022-11-11T10:56:12;5.50;;;3.00;;
61525;SDS011;47394;41.366;-8.738;2022-11-11T10:58:35;5.78;;;3.25;;
61525;SDS011;47394;41.366;-8.738;2022-11-11T11:00:55;5.40;;;3.30;;
61525;SDS011;47394;41.366;-8.738;2022-11-11T11:03:18;7.20;;;3.63;;
61525;SDS011;47394;41.366;-8.738;2022-11-11T11:08:22;9.77;;;3.40;;
61525;SDS011;47394;41.366;-8.738;2022-11-11T11:10:50;5.90;;;3.65;;
61525;SDS011;47394;41.366;-8.738;2022-11-11T11:15:35;7.20;;;3.08;;
61525;SDS011;47394;41.366;-8.738;2022-11-11T11:20:15;5.93;;;3.67;;
61525;SDS011;47394;41.366;-8.738;2022-11-11T11:22:55;4.68;;;2.88;;
61525;SDS011;47394;41.366;-8.738;2022-11-11T11:25:17;5.40;;;3.13;;
61525;SDS011;47394;41.366;-8.738;2022-11-11T11:27:36;5.82;;;2.60;;
61525;SDS011;47394;41.366;-8.738;2022-11-11T11:29:59;6.57;;;2.95;;
61525;SDS011;47394;41.366;-8.738;2022-11-11T11:32:28;5.25;;;3.47;;
61525;SDS011;47394;41.366;-8.738;2022-11-11T11:34:51;5.90;;;3.30;;
61525;SDS011;47394;41.366;-8.738;2022-11-11T11:37:11;8.70;;;3.40;;
61525;SDS011;47394;41.366;-8.738;2022-11-11T11:39:34;5.72;;;3.60;;
61525;SDS011;47394;41.366;-8.738;2022-11-11T11:41:53;10.02;;;4.38;;
61525;SDS011;47394;41.366;-8.738;2022-11-11T11:46:43;5.95;;;3.30;;
61525;SDS011;47394;41.366;-8.738;2022-11-11T11:51:32;4.30;;;3.00;;
61525;SDS011;47394;41.366;-8.738;2022-11-11T11:53:57;7.00;;;3.00;;
61525;SDS011;47394;41.366;-8.738;2022-11-11T11:56:23;5.78;;;3.20;;
61525;SDS011;47394;41.366;-8.738;2022-11-11T12:01:28;7.97;;;3.38;;
61525;SDS011;47394;41.366;-8.738;2022-11-11T12:08:39;8.15;;;3.92;;
61525;SDS011;47394;41.366;-8.738;2022-11-11T12:11:09;6.80;;;4.20;;
61525;SDS011;47394;41.366;-8.738;2022-11-11T12:16:13;6.88;;;4.10;;
61525;SDS011;47394;41.366;-8.738;2022-11-11T12:21:15;8.05;;;4.50;;
61525;SDS011;47394;41.366;-8.738;2022-11-11T12:23:42;6.95;;;4.47;;
61525;SDS011;47394;41.366;-8.738;2022-11-11T12:26:41;6.28;;;3.90;;
61525;SDS011;47394;41.366;-8.738;2022-11-11T12:31:30;8.15;;;4.30;;
61525;SDS011;47394;41.366;-8.738;2022-11-11T12:36:27;5.10;;;4.22;;
61525;SDS011;47394;41.366;-8.738;2022-11-11T12:38:48;9.68;;;4.75;;
61525;SDS011;47394;41.366;-8.738;2022-11-11T12:44:14;6.75;;;5.18;;
61525;SDS011;47394;41.366;-8.738;2022-11-11T12:46:14;8.45;;;4.43;;
61525;SDS011;47394;41.366;-8.738;2022-11-11T12:48:40;5.78;;;4.32;;
61525;SDS011;47394;41.366;-8.738;2022-11-11T12:51:11;6.93;;;4.50;;
61525;SDS011;47394;41.366;-8.738;2022-11-11T13:00:53;5.78;;;4.25;;
61525;SDS011;47394;41.366;-8.738;2022-11-11T13:03:33;6.00;;;4.00;;
61525;SDS011;47394;41.366;-8.738;2022-11-11T13:16:24;10.00;;;4.38;;
61525;SDS011;47394;41.366;-8.738;2022-11-11T13:18:57;7.45;;;3.78;;
61525;SDS011;47394;41.366;-8.738;2022-11-11T13:23:36;13.50;;;3.83;;
61525;SDS011;47394;41.366;-8.738;2022-11-11T13:25:56;5.53;;;3.65;;
61525;SDS011;47394;41.366;-8.738;2022-11-11T13:30:44;4.97;;;3.65;;
61525;SDS011;47394;41.366;-8.738;2022-11-11T13:33:05;5.93;;;3.17;;
61525;SDS011;47394;41.366;-8.738;2022-11-11T13:35:28;7.03;;;3.40;;
61525;SDS011;47394;41.366;-8.738;2022-11-11T13:37:48;23.45;;;3.53;;
61525;SDS011;47394;41.366;-8.738;2022-11-11T13:40:08;5.35;;;3.47;;
61525;SDS011;47394;41.366;-8.738;2022-11-11T13:42:29;7.10;;;3.53;;
61525;SDS011;47394;41.366;-8.738;2022-11-11T13:44:51;4.03;;;3.10;;
61525;SDS011;47394;41.366;-8.738;2022-11-11T13:47:13;3.80;;;2.70;;
61525;SDS011;47394;41.366;-8.738;2022-11-11T13:49:55;3.17;;;2.88;;
61525;SDS011;47394;41.366;-8.738;2022-11-11T13:52:26;6.22;;;3.70;;
61525;SDS011;47394;41.366;-8.738;2022-11-11T13:54:49;5.88;;;3.30;;
61525;SDS011;47394;41.366;-8.738;2022-11-11T13:59:34;6.78;;;3.10;;
61525;SDS011;47394;41.366;-8.738;2022-11-11T14:04:39;3.55;;;2.50;;
61525;SDS011;47394;41.366;-8.738;2022-11-11T14:07:32;7.60;;;3.17;;
61525;SDS011;47394;41.366;-8.738;2022-11-11T14:09:58;3.80;;;2.97;;
61525;SDS011;47394;41.366;-8.738;2022-11-11T14:12:19;2.80;;;2.50;;
61525;SDS011;47394;41.366;-8.738;2022-11-11T14:14:44;7.40;;;3.15;;
61525;SDS011;47394;41.366;-8.738;2022-11-11T14:17:03;7.65;;;3.10;;
61525;SDS011;47394;41.366;-8.738;2022-11-11T14:24:47;7.82;;;2.60;;
61525;SDS011;47394;41.366;-8.738;2022-11-11T14:27:22;3.92;;;2.28;;
61525;SDS011;47394;41.366;-8.738;2022-11-11T14:29:48;3.70;;;2.70;;
61525;SDS011;47394;41.366;-8.738;2022-11-11T14:32:24;8.88;;;4.07;;
61525;SDS011;47394;41.366;-8.738;2022-11-11T14:39:45;8.75;;;3.33;;
61525;SDS011;47394;41.366;-8.738;2022-11-11T14:42:40;8.65;;;2.95;;
61525;SDS011;47394;41.366;-8.738;2022-11-11T14:44:44;13.30;;;4.40;;
61525;SDS011;47394;41.366;-8.738;2022-11-11T14:52:03;5.97;;;2.55;;
61525;SDS011;47394;41.366;-8.738;2022-11-11T14:54:32;3.97;;;2.53;;
61525;SDS011;47394;41.366;-8.738;2022-11-11T14:56:58;5.97;;;2.75;;
61525;SDS011;47394;41.366;-8.738;2022-11-11T14:59:19;6.32;;;2.38;;
61525;SDS011;47394;41.366;-8.738;2022-11-11T15:01:39;7.00;;;2.80;;
61525;SDS011;47394;41.366;-8.738;2022-11-11T15:03:59;2.70;;;2.40;;
61525;SDS011;47394;41.366;-8.738;2022-11-11T15:06:21;3.45;;;2.40;;
61525;SDS011;47394;41.366;-8.738;2022-11-11T15:11:50;3.08;;;2.33;;
61525;SDS011;47394;41.366;-8.738;2022-11-11T15:19:20;6.85;;;2.78;;
61525;SDS011;47394;41.366;-8.738;2022-11-11T15:27:15;7.63;;;2.95;;
61525;SDS011;47394;41.366;-8.738;2022-11-11T15:29:43;5.50;;;3.28;;
61525;SDS011;47394;41.366;-8.738;2022-11-11T15:34:44;4.72;;;3.33;;
61525;SDS011;47394;41.366;-8.738;2022-11-11T15:37:08;5.20;;;3.90;;
61525;SDS011;47394;41.366;-8.738;2022-11-11T15:39:36;5.97;;;3.97;;
61525;SDS011;47394;41.366;-8.738;2022-11-11T15:41:56;4.70;;;3.70;;
61525;SDS011;47394;41.366;-8.738;2022-11-11T15:44:19;8.93;;;4.25;;
61525;SDS011;47394;41.366;-8.738;2022-11-11T15:46:40;6.40;;;4.05;;
61525;SDS011;47394;41.366;-8.738;2022-11-11T15:48:59;12.02;;;4.65;;